Time;durP1;ratioP1;P1;durP2;ratioP2;P2;SDS_P1;SDS_P2;PMS_P1;PMS_P2;Temp;Humidity;BMP_temperature;BMP_pressure;BME280_temperature;BME280_humidity;BME280_pressure;Samples;Min_cycle;Max_cycle;Signal;HPM_P1;HPM_P2
2022/11/21 00:02:38;;;;;;;10.88;5.60;;;;;;;-9.53;62.09;97237.91;6193466;28;20141;-66
2022/11/21 00:05:46;;;;;;;7.43;4.90;;;;;;;-9.54;61.92;97242.97;6197187;28;20490;-66
2022/11/21 00:08:48;;;;;;;10.50;5.78;;;;;;;-9.60;62.30;97238.59;6193449;28;20124;-66
2022/11/21 00:11:52;;;;;;;15.55;6.43;;;;;;;-9.62;61.94;97244.50;6193903;28;20421;-65
2022/11/21 00:14:57;;;;;;;11.13;5.38;;;;;;;-9.72;62.04;97233.28;6195124;28;20426;-65
2022/11/21 00:18:04;;;;;;;8.40;4.93;;;;;;;-9.75;62.05;97235.75;6178778;28;20050;-66
2022/11/21 00:21:10;;;;;;;13.68;5.90;;;;;;;-9.81;62.32;97235.66;6194474;28;20046;-66
2022/11/21 00:24:13;;;;;;;11.95;5.88;;;;;;;-9.81;62.68;97233.09;6173920;28;20050;-66
2022/11/21 00:27:19;;;;;;;8.55;5.28;;;;;;;-9.79;62.40;97227.22;6196307;28;20129;-65
2022/11/21 00:30:26;;;;;;;10.35;5.07;;;;;;;-9.77;62.32;97245.03;6195985;28;20050;-64
2022/11/21 00:33:39;;;;;;;13.63;6.10;;;;;;;-9.77;62.64;97229.78;6196686;28;20050;-66
2022/11/21 00:36:43;;;;;;;10.63;5.88;;;;;;;-10.05;62.71;97180.84;6195560;28;20042;-66
2022/11/21 00:39:44;;;;;;;12.52;5.28;;;;;;;-9.57;62.20;97245.44;6195779;28;20053;-67
2022/11/21 00:42:48;;;;;;;14.32;5.75;;;;;;;-9.54;62.31;97243.84;6196137;28;20421;-66
2022/11/21 00:45:52;;;;;;;8.82;5.93;;;;;;;-9.47;62.28;97249.06;6196198;28;20049;-66
2022/11/21 00:48:56;;;;;;;9.88;5.53;;;;;;;-9.47;62.19;97244.81;6196097;28;20042;-66
2022/11/21 00:52:02;;;;;;;10.38;5.50;;;;;;;-9.45;62.33;97252.47;6196490;28;20046;-66
2022/11/21 00:55:03;;;;;;;12.27;5.40;;;;;;;-9.43;62.34;97264.41;6196115;28;20137;-64
2022/11/21 00:58:07;;;;;;;14.27;7.47;;;;;;;-9.49;62.62;97261.75;6195625;28;20042;-68
2022/11/21 01:01:13;;;;;;;12.32;6.25;;;;;;;-9.46;62.63;97261.81;6178469;28;20058;-67
2022/11/21 01:04:19;;;;;;;11.80;5.65;;;;;;;-9.44;62.57;97251.66;6196069;28;20050;-66
2022/11/21 01:07:22;;;;;;;13.95;6.28;;;;;;;-9.39;62.41;97243.28;6199701;28;20045;-65
2022/11/21 01:10:26;;;;;;;11.98;5.85;;;;;;;-9.41;62.52;97238.97;6205315;28;20549;-62
2022/11/21 01:13:27;;;;;;;15.48;6.47;;;;;;;-9.37;62.45;97240.72;6196203;28;20124;-64
2022/11/21 01:16:32;;;;;;;11.82;5.78;;;;;;;-9.34;62.46;97241.66;6195247;28;20144;-67
2022/11/21 01:19:33;;;;;;;8.52;5.00;;;;;;;-9.30;62.37;97247.69;6218033;28;20424;-68
2022/11/21 01:22:39;;;;;;;11.80;6.10;;;;;;;-9.31;62.47;97238.31;6220241;28;20046;-68
2022/11/21 01:25:43;;;;;;;11.82;5.68;;;;;;;-9.28;62.39;97246.88;6172587;28;20047;-64
2022/11/21 01:28:47;;;;;;;;;;;;;;;-9.28;62.55;97235.84;6193262;28;20050;-64
2022/11/21 01:31:51;;;;;;;14.20;5.93;;;;;;;-9.32;62.26;97234.03;6200594;28;20396;-66
2022/11/21 01:34:55;;;;;;;10.60;5.47;;;;;;;-9.32;62.11;97223.84;6201099;28;20068;-65
2022/11/21 01:37:56;;;;;;;10.77;5.05;;;;;;;-9.58;62.36;97211.47;6201538;28;20034;-65
2022/11/21 01:41:00;;;;;;;8.30;3.60;;;;;;;-9.66;62.57;97201.97;6199042;28;20143;-66
2022/11/21 01:44:09;;;;;;;8.50;5.15;;;;;;;-9.95;63.04;97212.44;6200639;28;20592;-66
2022/11/21 01:47:12;;;;;;;13.32;4.63;;;;;;;-10.06;63.50;97222.41;6198781;28;20038;-66
2022/11/21 01:50:14;;;;;;;9.73;5.47;;;;;;;-10.06;63.64;97222.41;6198186;28;20046;-64
2022/11/21 01:53:15;;;;;;;9.98;4.95;;;;;;;-10.04;63.78;97223.28;6200760;28;20418;-65
2022/11/21 01:56:20;;;;;;;12.95;5.68;;;;;;;-10.04;63.94;97213.13;6199104;28;20046;-66
2022/11/21 01:59:44;;;;;;;5.68;3.30;;;;;;;-9.86;64.11;97214.31;6197617;28;20050;-64
2022/11/21 02:02:49;;;;;;;8.93;5.23;;;;;;;-9.99;63.92;97224.25;6198907;28;20073;-64
2022/11/21 02:05:52;;;;;;;11.48;4.93;;;;;;;-9.99;64.11;97224.25;6198391;28;21031;-65
2022/11/21 02:08:55;;;;;;;10.38;5.22;;;;;;;-9.95;64.11;97223.47;6200116;28;20042;-64
2022/11/21 02:12:07;;;;;;;12.82;5.00;;;;;;;-9.91;64.21;97209.13;6199855;28;20510;-65
2022/11/21 02:15:08;;;;;;;11.20;4.95;;;;;;;-9.80;64.11;97214.44;6199299;28;20058;-65
2022/11/21 02:18:11;;;;;;;12.57;5.20;;;;;;;-9.69;64.15;97222.28;6193587;28;20440;-65
2022/11/21 02:21:33;;;;;;;10.15;5.32;;;;;;;-9.60;64.35;97222.47;6198990;28;20137;-66
2022/11/21 02:24:42;;;;;;;10.43;5.47;;;;;;;-9.50;64.13;97230.31;6198717;28;20053;-64
2022/11/21 02:27:53;;;;;;;12.70;5.60;;;;;;;-9.43;63.93;97220.25;6178506;28;20038;-65
2022/11/21 02:30:55;;;;;;;9.50;5.57;;;;;;;-9.38;63.80;97213.53;6189746;28;20616;-66
2022/11/21 02:33:56;;;;;;;11.52;5.28;;;;;;;-9.33;63.89;97224.69;6184562;28;20069;-65
2022/11/21 02:37:01;;;;;;;20.08;6.55;;;;;;;-9.35;63.60;97216.16;6193675;28;20433;-65
2022/11/21 02:40:07;;;;;;;12.25;5.35;;;;;;;-9.38;63.94;97204.22;6198422;28;20182;-65
2022/11/21 02:43:18;;;;;;;14.43;7.15;;;;;;;-9.47;63.73;97210.84;6199359;28;20046;-65
2022/11/21 02:46:25;;;;;;;15.88;7.50;;;;;;;-9.50;63.58;97207.38;6183557;28;20046;-65
2022/11/21 02:49:39;;;;;;;16.25;7.50;;;;;;;-9.44;63.96;97210.88;6198631;28;20050;-66
2022/11/21 02:52:43;;;;;;;18.48;9.10;;;;;;;-9.38;64.61;97208.44;6186039;28;20046;-66
2022/11/21 02:55:47;;;;;;;14.80;7.90;;;;;;;-9.32;64.85;97203.47;6182709;28;20046;-65
2022/11/21 02:58:53;;;;;;;20.67;8.32;;;;;;;-9.26;64.58;97193.38;6178806;28;20053;-64
2022/11/21 03:02:01;;;;;;;17.30;8.40;;;;;;;-9.22;64.71;97195.16;6179446;28;20043;-65
2022/11/21 03:05:04;;;;;;;15.85;8.27;;;;;;;-9.19;64.38;97195.22;6171481;28;20061;-65
2022/11/21 03:08:06;;;;;;;19.50;8.73;;;;;;;-9.14;64.55;97191.06;6179439;28;20049;-65
2022/11/21 03:11:10;;;;;;;16.95;8.13;;;;;;;-9.09;64.56;97186.88;6180089;28;20034;-65
2022/11/21 03:14:14;;;;;;;16.38;6.95;;;;;;;-9.07;64.72;97176.72;6175380;28;20185;-64
2022/11/21 03:17:15;;;;;;;18.85;8.57;;;;;;;-8.99;64.66;97181.94;6174353;28;20038;-66
2022/11/21 03:20:16;;;;;;;24.90;11.00;;;;;;;-8.97;64.46;97185.34;6177264;28;20043;-65
2022/11/21 03:23:20;;;;;;;32.38;14.48;;;;;;;-9.07;64.12;97177.56;6179756;28;20634;-65
2022/11/21 03:26:24;;;;;;;31.15;14.10;;;;;;;-9.16;64.03;97185.06;6173344;28;20050;-64
2022/11/21 03:29:29;;;;;;;30.13;14.65;;;;;;;-9.24;63.88;97186.63;6172022;28;20042;-65
2022/11/21 03:32:32;;;;;;;29.85;12.98;;;;;;;-9.29;64.03;97178.03;6175958;28;20433;-65
2022/11/21 03:35:34;;;;;;;34.80;16.02;;;;;;;-9.38;63.92;97177.88;6182382;28;20513;-65
2022/11/21 03:38:35;;;;;;;34.33;14.38;;;;;;;-9.37;64.03;97189.78;6173509;28;20149;-65
2022/11/21 03:41:41;;;;;;;36.83;16.05;;;;;;;-9.43;63.67;97187.13;6171440;28;20051;-66
2022/11/21 03:44:45;;;;;;;31.40;15.10;;;;;;;-9.55;63.78;97175.03;6173425;28;20063;-64
2022/11/21 03:47:46;;;;;;;36.13;14.43;;;;;;;-9.44;63.66;97190.50;6176293;28;20116;-64
2022/11/21 03:50:50;;;;;;;22.80;11.55;;;;;;;-9.46;63.64;97184.50;6184851;28;20189;-66
2022/11/21 03:53:52;;;;;;;31.67;12.88;;;;;;;-9.40;63.43;97194.81;6152529;28;20082;-64
2022/11/21 03:56:55;;;;;;;29.58;13.75;;;;;;;-9.35;63.13;97194.06;6190793;28;20053;-65
2022/11/21 03:59:56;;;;;;;37.00;15.25;;;;;;;-9.33;63.43;97187.31;6175279;28;20055;-65
2022/11/21 04:02:58;;;;;;;29.88;14.80;;;;;;;-9.28;63.03;97184.88;6175325;28;20154;-65
2022/11/21 04:06:03;;;;;;;32.90;15.10;;;;;;;-9.22;63.06;97191.75;6175618;28;20034;-66
2022/11/21 04:09:07;;;;;;;34.88;15.07;;;;;;;-9.18;62.97;97186.72;6166619;28;20046;-66
2022/11/21 04:12:11;;;;;;;38.05;15.93;;;;;;;-9.07;62.61;97197.97;6170669;28;20054;-64
2022/11/21 04:15:16;;;;;;;45.85;19.92;;;;;;;-8.92;62.45;97206.69;6156653;28;20046;-65
2022/11/21 04:18:20;;;;;;;45.25;19.67;;;;;;;-8.78;62.22;97210.31;6181801;28;20080;-66
2022/11/21 04:21:21;;;;;;;;;;;;;;;-8.66;61.93;97208.00;6162664;28;20038;-65
2022/11/21 04:24:25;;;;;;;61.33;30.00;;;;;;;-8.62;61.89;97204.63;6170396;28;19996;-66
2022/11/21 04:27:26;;;;;;;56.75;25.65;;;;;;;-8.50;61.96;97208.22;6174879;28;20038;-65
2022/11/21 04:30:29;;;;;;;64.93;27.95;;;;;;;-8.32;61.73;97203.34;6181597;28;20050;-65
2022/11/21 04:33:35;;;;;;;69.03;30.08;;;;;;;-8.16;61.18;97210.38;6186551;28;20043;-66
2022/11/21 04:36:36;;;;;;;54.88;26.70;;;;;;;-8.06;61.01;97200.31;6184959;28;20053;-64
2022/11/21 04:39:38;;;;;;;58.67;27.15;;;;;;;-7.97;61.19;97202.97;6168262;28;20046;-66
2022/11/21 04:42:43;;;;;;;58.45;26.08;;;;;;;-7.96;61.04;97202.13;6173608;28;20034;-64
2022/11/21 04:45:47;;;;;;;47.35;21.02;;;;;;;-7.88;61.12;97200.53;6171378;28;20039;-65
2022/11/21 04:48:48;;;;;;;39.65;19.02;;;;;;;-7.79;61.03;97210.84;6181455;28;20051;-70
2022/11/21 04:51:52;;;;;;;56.40;24.08;;;;;;;-7.65;61.16;97223.78;6170622;28;20042;-70
2022/11/21 04:54:59;;;;;;;51.92;21.38;;;;;;;-7.54;60.84;97211.16;6170728;28;21290;-72
2022/11/21 04:58:03;;;;;;;47.38;21.58;;;;;;;-7.49;60.34;97214.63;6171495;28;20046;-71
2022/11/21 05:01:06;;;;;;;35.17;18.70;;;;;;;-7.39;60.63;97210.44;6180159;28;20072;-71
2022/11/21 05:04:08;;;;;;;35.10;16.63;;;;;;;-7.16;60.58;97228.59;6175816;28;20050;-70
2022/11/21 05:07:14;;;;;;;40.58;17.38;;;;;;;-7.02;59.66;97227.03;6185130;28;20051;-70
2022/11/21 05:10:20;;;;;;;32.45;15.95;;;;;;;-6.98;59.60;97216.00;6167594;28;20050;-69
2022/11/21 05:13:23;;;;;;;36.13;15.98;;;;;;;-6.79;59.30;97215.31;6170137;28;20042;-70
2022/11/21 05:16:31;;;;;;;36.20;14.50;;;;;;;-6.63;59.79;97220.56;6171945;28;21885;-72
2022/11/21 05:19:37;;;;;;;40.58;16.80;;;;;;;-6.50;58.91;97216.41;6162695;28;20053;-71
2022/11/21 05:22:41;;;;;;;31.35;13.80;;;;;;;-6.47;58.97;97222.41;6152880;28;20058;-71
2022/11/21 05:25:44;;;;;;;21.33;10.45;;;;;;;-6.44;58.71;97222.41;6152651;28;20532;-71
2022/11/21 05:28:48;;;;;;;23.80;11.85;;;;;;;-6.30;58.53;97213.97;6157216;28;20050;-71
2022/11/21 05:31:56;;;;;;;24.83;12.25;;;;;;;-6.08;58.26;97210.72;6159355;28;20452;-71
2022/11/21 05:35:02;;;;;;;23.75;11.07;;;;;;;-5.84;58.33;97216.78;6159499;28;20038;-71
2022/11/21 05:38:05;;;;;;;20.98;10.02;;;;;;;-5.66;57.25;97209.19;6139598;28;20047;-70
2022/11/21 05:41:09;;;;;;;24.08;10.38;;;;;;;-5.48;57.25;97216.94;6153124;28;20066;-70
2022/11/21 05:44:13;;;;;;;22.10;9.82;;;;;;;-5.27;57.11;97217.84;6182600;28;20413;-70
2022/11/21 05:47:16;;;;;;;22.65;8.95;;;;;;;-5.19;56.61;97205.91;6182632;28;20038;-70
2022/11/21 05:50:20;;;;;;;18.50;9.65;;;;;;;-4.96;56.35;97219.63;6186185;28;20058;-70
2022/11/21 05:53:21;;;;;;;15.70;7.95;;;;;;;-4.81;55.81;97213.66;6153751;28;20038;-71
2022/11/21 05:56:26;;;;;;;21.52;9.25;;;;;;;-4.68;56.01;97196.56;6146642;28;20537;-70
2022/11/21 05:59:29;;;;;;;17.48;8.73;;;;;;;-4.44;55.68;97207.69;6153289;28;22154;-70
2022/11/21 06:06:03;;;;;;;16.88;9.88;;;;;;;-4.16;55.06;97208.50;6168081;28;20039;-70
2022/11/21 06:09:05;;;;;;;17.95;9.75;;;;;;;-3.92;54.70;97212.75;6161427;28;20128;-71
2022/11/21 06:12:09;;;;;;;22.80;10.63;;;;;;;-3.65;54.04;97202.38;6177016;28;20544;-71
2022/11/21 06:15:13;;;;;;;23.08;10.82;;;;;;;-3.39;53.99;97194.56;6175306;28;20529;-70
2022/11/21 06:18:19;;;;;;;18.63;10.70;;;;;;;-3.31;53.48;97191.94;6179980;28;20042;-70
2022/11/21 06:21:25;;;;;;;21.45;11.63;;;;;;;-3.08;52.65;97196.97;6173648;28;20051;-70
2022/11/21 06:24:31;;;;;;;21.52;10.95;;;;;;;-2.81;52.39;97198.50;6164984;28;20050;-69
2022/11/21 06:27:34;;;;;;;21.45;11.57;;;;;;;-2.56;52.36;97195.75;6153103;28;20704;-68
2022/11/21 06:30:38;;;;;;;21.20;10.60;;;;;;;-2.17;51.35;97180.81;6153628;28;20038;-69
2022/11/21 06:33:43;;;;;;;21.60;10.63;;;;;;;-1.78;50.73;97178.66;6159041;28;20061;-69
2022/11/21 06:36:52;;;;;;;25.40;12.20;;;;;;;-1.45;50.31;97178.25;6159710;28;20038;-68
2022/11/21 06:39:55;;;;;;;20.33;9.98;;;;;;;-0.97;49.82;97191.38;6157510;28;20057;-70
2022/11/21 06:42:59;;;;;;;19.85;11.15;;;;;;;-0.17;48.04;97179.81;6169310;28;20041;-68
2022/11/21 06:46:03;;;;;;;20.63;11.13;;;;;;;1.76;45.75;97175.72;6152234;28;20121;-66
2022/11/21 06:49:07;;;;;;;19.90;11.23;;;;;;;5.44;39.87;97183.81;6179952;28;20034;-66
2022/11/21 06:52:11;;;;;;;20.42;11.77;;;;;;;5.17;38.04;97134.41;6169745;28;20272;-66
2022/11/21 06:55:13;;;;;;;23.35;12.13;;;;;;;6.85;37.56;97184.88;6148293;28;20058;-67
2022/11/21 06:58:17;;;;;;;22.42;12.55;;;;;;;7.94;36.03;97156.19;6156495;28;20514;-67
2022/11/21 07:01:18;;;;;;;24.13;13.60;;;;;;;8.77;34.96;97176.41;6160947;28;20067;-67
2022/11/21 07:04:20;;;;;;;24.20;14.05;;;;;;;9.92;33.37;97171.88;6157556;28;20152;-68
2022/11/21 07:07:22;;;;;;;25.55;14.32;;;;;;;11.21;31.75;97165.88;6155161;28;20046;-68
2022/11/21 07:10:23;;;;;;;17.98;12.02;;;;;;;12.73;29.28;97157.69;6156966;28;20034;-69
2022/11/21 07:13:29;;;;;;;18.50;10.70;;;;;;;15.10;27.26;97157.91;6157007;28;21893;-68
2022/11/21 07:16:33;;;;;;;17.60;9.93;;;;;;;17.17;24.75;97148.75;6163194;28;20124;-68
2022/11/21 07:19:37;;;;;;;15.00;9.60;;;;;;;18.83;21.53;97145.31;6170610;28;20409;-69
2022/11/21 07:22:43;;;;;;;15.82;8.70;;;;;;;20.11;22.12;97144.53;6176244;28;20046;-70
2022/11/21 07:25:47;;;;;;;13.35;7.85;;;;;;;20.92;20.87;97130.19;6166857;28;20051;-71
2022/11/21 07:28:51;;;;;;;10.35;7.32;;;;;;;21.62;19.69;97132.69;6165472;28;20039;-71
2022/11/21 07:31:53;;;;;;;11.88;7.05;;;;;;;22.27;18.89;97121.28;6159343;28;20053;-71
2022/11/21 07:34:57;;;;;;;11.48;7.30;;;;;;;22.82;17.88;97136.72;6180224;28;20069;-69
2022/11/21 07:38:06;;;;;;;14.32;6.93;;;;;;;23.00;16.98;97127.66;6157577;28;20042;-69
2022/11/21 07:41:07;;;;;;;9.57;7.32;;;;;;;23.94;16.23;97134.84;6150424;28;20088;-67
2022/11/21 07:44:13;;;;;;;15.52;8.95;;;;;;;23.97;14.80;97121.03;6170035;28;20639;-67
2022/11/21 07:47:20;;;;;;;16.02;8.52;;;;;;;23.74;15.67;97126.38;6188325;28;20505;-67
2022/11/21 07:50:24;;;;;;;11.25;7.90;;;;;;;23.90;15.16;97127.31;6171340;28;20515;-67
2022/11/21 07:53:29;;;;;;;12.80;9.10;;;;;;;24.25;14.65;97122.38;6148645;28;20532;-68
2022/11/21 07:56:33;;;;;;;14.18;9.68;;;;;;;24.64;13.01;97120.41;6152130;28;20038;-67
2022/11/21 07:59:37;;;;;;;14.18;8.80;;;;;;;24.31;13.72;97110.91;6161408;28;20556;-68
2022/11/21 08:02:44;;;;;;;11.75;8.07;;;;;;;24.37;13.83;97112.84;6159377;28;20450;-68
2022/11/21 08:05:48;;;;;;;11.13;7.13;;;;;;;24.68;13.19;97106.56;6155914;28;20081;-68
2022/11/21 08:08:57;;;;;;;11.75;7.75;;;;;;;24.29;12.95;97102.16;6152205;28;20038;-68
2022/11/21 08:12:01;;;;;;;9.43;6.72;;;;;;;24.14;12.83;97121.75;6170465;28;20042;-67
2022/11/21 08:15:03;;;;;;;11.95;6.68;;;;;;;24.15;12.77;97112.72;6178142;28;20497;-68
2022/11/21 08:18:19;;;;;;;11.88;6.82;;;;;;;24.67;11.76;97111.13;6169808;28;20038;-68
2022/11/21 08:21:25;;;;;;;8.05;5.45;;;;;;;24.93;12.24;97110.69;6175251;28;20046;-67
2022/11/21 08:24:32;;;;;;;9.70;5.45;;;;;;;25.04;11.92;97107.56;6170052;28;20512;-68
2022/11/21 08:27:33;;;;;;;7.00;5.25;;;;;;;25.08;12.00;97108.00;6169842;28;20053;-69
2022/11/21 08:30:38;;;;;;;6.93;4.43;;;;;;;25.03;11.75;97105.88;6173195;28;20046;-68
2022/11/21 08:33:42;;;;;;;5.78;4.05;;;;;;;24.98;11.79;97108.28;6172247;28;20280;-67
2022/11/21 08:36:49;;;;;;;6.60;4.68;;;;;;;24.70;11.51;97091.09;6183405;28;20082;-67
2022/11/21 08:39:52;;;;;;;7.85;4.97;;;;;;;24.64;11.67;97085.41;6169086;28;20497;-68
2022/11/21 08:43:06;;;;;;;7.70;4.40;;;;;;;24.64;10.64;97082.72;6176739;28;20046;-68
2022/11/21 08:46:10;;;;;;;6.68;4.70;;;;;;;24.57;11.33;97081.81;6169887;28;20497;-67
2022/11/21 08:49:11;;;;;;;8.07;5.30;;;;;;;23.84;11.99;97085.03;6159601;28;20042;-67
2022/11/21 08:52:13;;;;;;;7.57;5.28;;;;;;;23.91;11.31;97083.28;6158050;28;20046;-67
2022/11/21 08:55:23;;;;;;;9.05;6.45;;;;;;;23.96;11.67;97091.66;6172983;28;20416;-67
2022/11/21 08:58:29;;;;;;;11.20;6.90;;;;;;;23.95;11.45;97076.56;6161510;28;20043;-67
2022/11/21 09:01:31;;;;;;;13.30;7.43;;;;;;;24.03;11.75;97089.91;6166014;28;20046;-68
2022/11/21 09:04:32;;;;;;;9.23;6.45;;;;;;;23.85;11.31;97084.84;6161039;28;20530;-69
2022/11/21 09:07:36;;;;;;;7.75;5.97;;;;;;;23.84;11.73;97085.03;6164145;28;20049;-68
2022/11/21 09:10:40;;;;;;;9.25;6.63;;;;;;;23.75;11.26;97071.66;6163490;28;20050;-69
2022/11/21 09:13:42;;;;;;;10.38;6.57;;;;;;;23.72;11.60;97080.06;6162853;28;20047;-68
2022/11/21 09:20:10;;;;;;;10.38;6.47;;;;;;;23.50;11.61;97070.09;6166334;28;20046;-69
2022/11/21 09:23:14;;;;;;;10.32;5.43;;;;;;;23.21;12.00;97068.88;6163307;28;20128;-69
2022/11/21 09:26:18;;;;;;;14.35;10.57;;;;;;;23.15;11.88;97072.22;6164153;28;20097;-68
2022/11/21 09:29:25;;;;;;;11.00;7.25;;;;;;;22.92;11.99;97072.09;6167084;28;20076;-69
2022/11/21 09:32:26;;;;;;;10.25;7.03;;;;;;;22.76;12.11;97061.41;6166272;28;20042;-69
2022/11/21 09:35:30;;;;;;;6.70;5.22;;;;;;;22.50;12.16;97061.63;6165277;28;20042;-68
2022/11/21 09:38:37;;;;;;;7.28;5.75;;;;;;;22.28;12.17;97064.03;6166651;28;20050;-68
2022/11/21 09:41:53;;;;;;;6.65;5.43;;;;;;;22.04;12.37;97056.78;6167847;28;20037;-68
2022/11/21 09:45:25;;;;;;;8.93;6.00;;;;;;;22.07;12.69;97053.75;6167746;28;20395;-71
2022/11/21 09:48:38;;;;;;;9.52;6.00;;;;;;;21.48;12.56;97059.19;6164598;28;20700;-70
2022/11/21 09:51:48;;;;;;;11.02;7.45;;;;;;;21.28;12.79;97052.41;6167988;28;20075;-67
2022/11/21 09:55:00;;;;;;;11.25;8.45;;;;;;;21.02;13.12;97055.97;6171576;28;20051;-69
2022/11/21 09:58:05;;;;;;;8.90;6.63;;;;;;;20.62;13.34;97049.44;6168398;28;20042;-68
2022/11/21 10:01:13;;;;;;;9.52;6.47;;;;;;;20.21;13.35;97050.09;6168636;28;20042;-68
2022/11/21 10:04:19;;;;;;;11.70;7.03;;;;;;;19.60;13.84;97052.56;6180745;28;20189;-69
2022/11/21 10:07:31;;;;;;;8.57;5.47;;;;;;;18.91;14.02;97055.75;6172136;28;20394;-69
2022/11/21 10:10:52;;;;;;;10.32;5.82;;;;;;;18.61;14.38;97047.84;6171856;28;20254;-68
2022/11/21 10:14:11;;;;;;;7.93;5.35;;;;;;;17.77;14.98;97044.97;6171701;28;20046;-69
2022/11/21 10:17:36;;;;;;;11.48;5.90;;;;;;;14.58;16.58;97037.50;6163188;28;20054;-69
2022/11/21 10:20:59;;;;;;;9.73;6.40;;;;;;;10.53;20.51;97042.00;6178956;28;20410;-69
2022/11/21 10:24:16;;;;;;;9.63;6.47;;;;;;;7.60;24.03;97046.06;6183150;28;20058;-70
2022/11/21 10:27:29;;;;;;;9.82;6.43;;;;;;;5.54;26.38;97048.56;6174997;28;20055;-68
2022/11/21 10:30:34;;;;;;;9.65;6.57;;;;;;;3.92;28.13;97043.53;6188245;28;20433;-69
2022/11/21 10:33:43;;;;;;;10.30;6.85;;;;;;;2.49;30.28;97044.75;6189557;28;20050;-68
2022/11/21 10:36:55;;;;;;;12.57;6.55;;;;;;;1.20;32.33;97040.53;6189156;28;20042;-69
2022/11/21 10:40:07;;;;;;;11.25;6.88;;;;;;;0.48;33.17;97038.78;6178403;28;20484;-69
2022/11/21 10:46:39;;;;;;;12.30;6.75;;;;;;;-0.51;35.29;97045.09;6163310;28;20046;-71
2022/11/21 10:49:48;;;;;;;10.73;6.80;;;;;;;-1.39;36.74;97037.94;6172129;28;20524;-69
2022/11/21 10:56:41;;;;;;;20.83;10.27;;;;;;;-2.77;38.99;97037.94;6175494;28;20125;-69
2022/11/21 11:00:10;;;;;;;20.50;11.18;;;;;;;-3.02;39.34;97033.88;6167651;28;20042;-69
2022/11/21 11:03:20;;;;;;;40.42;17.65;;;;;;;-3.44;40.17;97017.94;6162444;28;20474;-69
2022/11/21 11:06:29;;;;;;;32.70;15.68;;;;;;;-3.62;40.47;97022.34;6164242;28;20042;-69
2022/11/21 11:09:32;;;;;;;38.33;17.75;;;;;;;-3.69;40.61;97024.94;6176801;28;20046;-70
2022/11/21 11:16:16;;;;;;;69.18;30.55;;;;;;;-4.07;41.47;97021.75;6186471;28;20050;-79
2022/11/21 11:19:25;;;;;;;100.50;42.28;;;;;;;-4.21;41.68;97033.81;6175356;28;20045;-65
2022/11/21 11:22:30;;;;;;;125.32;53.17;;;;;;;-4.32;41.64;97027.84;6182497;28;20042;-66
2022/11/21 11:25:39;;;;;;;129.25;53.55;;;;;;;-4.51;41.92;97022.75;6182529;28;20188;-66
2022/11/21 11:28:43;;;;;;;78.47;37.17;;;;;;;-4.61;42.26;97031.38;6178024;28;20042;-66
2022/11/21 11:31:59;;;;;;;45.20;21.48;;;;;;;-4.77;43.17;97043.38;6168225;28;20039;-65
2022/11/21 11:35:25;;;;;;;31.52;15.68;;;;;;;-4.98;43.52;97046.00;6173628;28;20042;-66
2022/11/21 11:38:29;;;;;;;17.43;9.13;;;;;;;-5.20;44.25;97055.41;6171706;28;20216;-66
2022/11/21 11:53:16;;;;;;;9.85;5.18;;;;;;;-6.23;47.10;97060.34;6171647;28;20421;-66
2022/11/21 11:56:17;;;;;;;12.60;5.32;;;;;;;-6.49;47.86;97060.25;6149856;28;20156;-65
2022/11/21 11:59:36;;;;;;;12.23;5.35;;;;;;;-6.66;48.74;97062.72;6148845;28;20046;-65
2022/11/21 12:02:56;;;;;;;10.73;5.53;;;;;;;-6.86;49.78;97060.03;6145373;28;20038;-67
2022/11/21 12:06:09;;;;;;;12.57;5.13;;;;;;;-7.07;50.04;97060.75;6159042;28;20042;-65
2022/11/21 12:09:28;;;;;;;8.68;4.63;;;;;;;-7.19;49.96;97065.75;6139395;28;20042;-67
2022/11/21 12:12:49;;;;;;;11.07;5.75;;;;;;;-7.30;50.25;97063.16;6179540;28;20416;-66
2022/11/21 12:15:54;;;;;;;13.07;5.65;;;;;;;-7.41;49.89;97064.75;6184378;28;20065;-66
2022/11/21 12:19:07;;;;;;;10.68;5.72;;;;;;;-7.47;50.24;97057.88;6186101;28;20042;-66
2022/11/21 12:22:11;;;;;;;12.30;5.50;;;;;;;-7.51;50.34;97062.94;6163770;28;20058;-65
2022/11/21 12:25:15;;;;;;;15.98;6.45;;;;;;;-7.54;50.44;97073.16;6163361;28;20429;-68
2022/11/21 12:28:50;;;;;;;17.73;7.60;;;;;;;-7.59;51.59;97082.47;6160641;28;20176;-69
2022/11/21 12:32:29;;;;;;;16.75;8.02;;;;;;;-7.63;51.31;97078.19;6173632;28;20042;-71
2022/11/21 12:36:03;;;;;;;20.83;9.15;;;;;;;-7.73;51.51;97078.09;6176539;28;20042;-72
2022/11/21 12:39:37;;;;;;;37.57;16.40;;;;;;;-7.92;52.02;97061.72;6177378;28;20046;-74
2022/11/21 12:42:50;;;;;;;46.50;17.13;;;;;;;-7.92;51.20;97071.09;6173498;28;20469;-72
2022/11/21 12:46:14;;;;;;;58.43;26.13;;;;;;;-8.03;52.21;97070.09;6167364;28;20160;-73
2022/11/21 12:57:13;;;;;;;110.10;41.30;;;;;;;-8.42;51.61;97068.84;6174511;28;20046;-71
2022/11/21 13:00:28;;;;;;;96.57;39.65;;;;;;;-8.55;51.53;97069.50;6178623;28;20050;-75
2022/11/21 13:04:08;;;;;;;105.22;40.67;;;;;;;-8.69;51.92;97060.00;6157129;28;20042;-75
2022/11/21 13:07:13;;;;;;;140.10;54.95;;;;;;;-8.93;51.49;97059.66;6169824;28;20100;-74
2022/11/21 13:10:16;;;;;;;149.90;60.20;;;;;;;-8.90;51.63;97075.00;6179447;28;20050;-73
2022/11/21 13:13:17;;;;;;;168.77;68.55;;;;;;;-8.98;51.43;97071.47;6172405;28;20069;-72
2022/11/21 13:16:38;;;;;;;191.15;72.60;;;;;;;-9.12;52.12;97068.72;6173502;28;20049;-73
2022/11/21 13:20:18;;;;;;;182.40;71.47;;;;;;;-9.16;51.91;97078.00;6174467;28;20329;-73
2022/11/21 13:23:38;;;;;;;152.85;63.03;;;;;;;-9.27;51.35;97069.34;6180804;28;20050;-72
2022/11/21 13:26:42;;;;;;;137.27;60.65;;;;;;;-9.40;51.70;97057.22;6176902;28;20053;-73
2022/11/21 13:30:06;;;;;;;177.88;72.40;;;;;;;-9.46;51.94;97057.13;6178817;28;20406;-72
2022/11/21 13:33:33;;;;;;;202.10;80.72;;;;;;;-9.55;52.82;97053.59;6186238;28;20475;-73
2022/11/21 13:36:46;;;;;;;215.25;84.68;;;;;;;-9.71;52.00;97049.09;6181763;28;20046;-73
2022/11/21 13:39:48;;;;;;;164.35;70.57;;;;;;;-9.72;51.70;97044.84;6177249;28;20750;-73
2022/11/21 13:43:08;;;;;;;156.85;63.05;;;;;;;-9.79;52.32;97050.66;6179168;28;20050;-73
2022/11/21 13:46:51;;;;;;;189.15;72.05;;;;;;;-9.88;53.12;97050.47;6177996;28;20047;-72
2022/11/21 13:50:18;;;;;;;155.73;65.32;;;;;;;-9.94;52.48;97058.88;6200365;28;20041;-73
2022/11/21 13:53:27;;;;;;;165.73;64.07;;;;;;;-10.00;52.43;97048.59;6171801;28;20194;-72
2022/11/21 13:57:04;;;;;;;162.35;64.07;;;;;;;-10.06;52.27;97043.38;6178068;28;20980;-73
2022/11/21 14:00:34;;;;;;;179.05;70.78;;;;;;;-10.18;53.11;97039.78;6179100;28;20069;-73
2022/11/21 14:04:16;;;;;;;198.85;69.95;;;;;;;-10.20;52.77;97032.94;6178985;28;20046;-72
2022/11/21 14:07:23;;;;;;;208.88;76.72;;;;;;;-10.31;52.44;97031.94;6179765;28;20046;-72
2022/11/21 14:10:24;;;;;;;259.42;91.55;;;;;;;-10.41;52.13;97031.75;6163957;28;20143;-73
2022/11/21 14:13:45;;;;;;;239.75;93.18;;;;;;;-10.47;52.13;97031.66;6178978;28;20038;-73
2022/11/21 14:17:04;;;;;;;212.80;78.25;;;;;;;-10.57;52.16;97033.97;6177463;28;20069;-71
2022/11/21 14:20:44;;;;;;;234.10;84.13;;;;;;;-10.60;52.73;97033.91;6188490;28;20081;-73
2022/11/21 14:23:48;;;;;;;223.35;81.47;;;;;;;-10.77;52.40;97020.84;6181087;28;20047;-72
2022/11/21 14:26:56;;;;;;;206.25;75.07;;;;;;;-10.78;52.17;97034.38;6179602;28;20053;-71
2022/11/21 14:29:58;;;;;;;202.75;78.18;;;;;;;-10.86;52.15;97026.59;6180047;28;20050;-72
2022/11/21 14:33:21;;;;;;;210.20;80.78;;;;;;;-10.90;52.70;97033.31;6166894;28;20045;-72
2022/11/21 14:36:28;;;;;;;186.95;73.65;;;;;;;-10.96;52.49;97027.22;6166965;28;20073;-73
2022/11/21 14:39:41;;;;;;;186.98;72.80;;;;;;;-11.01;53.16;97024.59;6180509;28;20038;-71
2022/11/21 14:42:48;;;;;;;178.95;68.03;;;;;;;-11.00;52.43;97033.09;6186456;28;20208;-72
2022/11/21 14:45:55;;;;;;;180.63;67.75;;;;;;;-11.08;52.56;97020.22;6196175;28;20042;-73
2022/11/21 14:49:19;;;;;;;147.02;56.80;;;;;;;-11.11;52.95;97025.22;6180715;28;20038;-77
2022/11/21 14:52:34;;;;;;;116.93;46.30;;;;;;;-11.18;53.15;97034.41;6163022;28;21284;-75
2022/11/21 14:55:42;;;;;;;183.73;64.55;;;;;;;-11.28;52.61;97036.69;6173089;28;20120;-69
2022/11/21 14:58:49;;;;;;;161.00;57.17;;;;;;;-11.33;52.58;97045.06;6168190;28;20042;-68
2022/11/21 15:02:11;;;;;;;123.28;48.83;;;;;;;-11.38;52.98;97041.56;6165927;28;20402;-73
2022/11/21 15:05:14;;;;;;;152.80;55.30;;;;;;;-11.52;52.74;97025.13;6160530;28;20046;-74
2022/11/21 15:08:24;;;;;;;164.85;58.25;;;;;;;-11.57;53.01;97025.03;6160599;28;20073;-75